Portada
METAR-TAF:

METAR-TAF

Aeroports :

Aeroport d'Agadir-Al Massira

Agadir, Marroc

latitud: 30-20N, longitud: 009-24W, altitud: 74 m

Observació

L'informe es va fer fa 31 minuts, a les 10:00 UTC
Vent 7 kt del Sud/Sud-Oest, variant entre Sud i Oest
Temperatura 18°C
Humitat 83%
Pressió 1010 hPa
Visibilitat: 8000 m
Cel ennuvolat a una alçada de 1600 ft
Núvols disperses a una alçada de 2600 ft

METAR: GMAD 181000Z 21007KT 170V260 8000 BKN016 SCT026 18/15 Q1010 NOSIG

Hora: 10:31 (10:31 UTC)

Pronòstic

L'informe es va fer fa 5 hores i 31 minuts, a les 05:00 UTC
Pronòstic vàlid del 18 a les 06 UTC al 19 a les 12 UTC
Vent 4 kt del Sud/Sud-Oest
Visibilitat 10 km o més
Núvols disperses a una alçada de 2000 ft
Cel ennuvolat a una alçada de 8000 ft
Temporalment
l' 18 a les 06 UTC al 18 a les 18 UTC
Visibilitat: 4000 m
Cel ennuvolat a una alçada de 1600 ft, Cumulus congestus.
pluja

TAF: GMAD 180500Z 1806/1912 20004KT 9999 SCT020 BKN080 TEMPO 1806/1818 4000 RA BKN016TCU

Observacions i pronòstics meteorològics de més de 4000 aeroports (METAR i TAF).

Les estacions disponibles són els punts grocs i vermells al mapa.

Posi el ratolí al punt desitjat per veure el nom de l'estació.

Feu clic per veure les observacions i els pronòstics meteorològics.

Per canviar el mapa: feu clic els botons verds amb una creu de color negre per apropar; al botó verd amb un guió per allunyar la imatge; o en les fletxes verdes per a mapes adjacents.


METAR-TAF: